createdAt,value
2018-06-02T00:01:29.281Z,18.29
2018-06-02T00:04:31.842Z,18.32
2018-06-02T00:07:34.291Z,18.41
2018-06-02T00:10:36.804Z,18.37
2018-06-02T00:13:39.267Z,18.29
2018-06-02T00:16:41.762Z,18.33
2018-06-02T00:19:44.340Z,18.36
2018-06-02T00:22:46.917Z,18.33
2018-06-02T00:25:49.415Z,18.36
2018-06-02T00:28:51.925Z,18.33
2018-06-02T00:31:54.401Z,18.26
2018-06-02T00:34:56.900Z,18.27
2018-06-02T00:37:59.367Z,18.25
2018-06-02T00:41:01.884Z,18.24
2018-06-02T00:44:04.422Z,18.25
2018-06-02T00:47:06.907Z,18.24
2018-06-02T00:50:09.447Z,18.25
2018-06-02T00:53:11.905Z,18.27
2018-06-02T00:56:14.406Z,18.19
2018-06-02T00:59:16.912Z,18.18
2018-06-02T01:02:19.503Z,18.19
2018-06-02T01:05:21.993Z,18.18
2018-06-02T01:08:24.473Z,18.07
2018-06-02T01:11:26.959Z,18.06
2018-06-02T01:14:29.566Z,18.03
2018-06-02T01:17:32.044Z,18.04
2018-06-02T01:20:34.503Z,18.00
2018-06-02T01:23:36.962Z,17.97
2018-06-02T01:26:39.422Z,17.99
2018-06-02T01:29:41.918Z,17.98
2018-06-02T01:32:47.021Z,17.92
2018-06-02T01:35:49.527Z,17.92
2018-06-02T01:38:52.023Z,17.92
2018-06-02T01:41:54.551Z,17.83
2018-06-02T01:44:57.109Z,17.81
2018-06-02T01:47:59.596Z,17.79
2018-06-02T01:51:02.064Z,17.75
2018-06-02T01:54:04.562Z,17.79
2018-06-02T01:57:07.062Z,17.75
2018-06-02T02:00:09.747Z,17.64
2018-06-02T02:03:12.188Z,17.66
2018-06-02T02:06:14.687Z,17.65
2018-06-02T02:09:17.240Z,17.69
2018-06-02T02:12:19.793Z,17.62
2018-06-02T02:15:22.249Z,17.64
2018-06-02T02:18:24.815Z,17.60
2018-06-02T02:21:27.276Z,17.58
2018-06-02T02:24:29.763Z,17.60
2018-06-02T02:27:32.199Z,17.61
2018-06-02T02:30:34.699Z,17.56
2018-06-02T02:33:37.227Z,17.55
2018-06-02T02:36:39.739Z,17.50
2018-06-02T02:39:42.239Z,17.45
2018-06-02T02:42:44.762Z,17.40
2018-06-02T02:45:47.271Z,17.30
2018-06-02T02:48:49.839Z,17.30
2018-06-02T02:51:52.313Z,17.19
2018-06-02T02:54:54.789Z,17.15
2018-06-02T02:57:57.239Z,17.13
2018-06-02T03:00:59.762Z,17.09
2018-06-02T03:04:02.258Z,17.13
2018-06-02T03:07:04.716Z,17.03
2018-06-02T03:10:07.218Z,17.02
2018-06-02T03:13:10.594Z,17.03
2018-06-02T03:16:13.068Z,17.02
2018-06-02T03:19:15.649Z,16.94
2018-06-02T03:22:18.234Z,16.94
2018-06-02T03:25:20.763Z,16.88
2018-06-02T03:28:23.266Z,16.94
2018-06-02T03:31:25.813Z,16.84
2018-06-02T03:34:28.307Z,16.85
2018-06-02T03:37:30.783Z,16.77
2018-06-02T03:40:33.253Z,16.74
2018-06-02T03:43:35.783Z,16.78
2018-06-02T03:46:38.236Z,16.70
2018-06-02T03:49:40.784Z,16.69
2018-06-02T03:52:43.294Z,16.70
2018-06-02T03:55:45.754Z,16.61
2018-06-02T03:58:48.223Z,16.63
2018-06-02T04:01:50.733Z,16.65
2018-06-02T04:04:53.287Z,16.58
2018-06-02T04:07:55.867Z,16.55
2018-06-02T04:10:58.387Z,16.55
2018-06-02T04:14:00.873Z,16.60
2018-06-02T04:17:03.318Z,16.54
2018-06-02T04:20:05.823Z,16.47
2018-06-02T04:23:08.994Z,16.49
2018-06-02T04:26:11.489Z,16.51
2018-06-02T04:29:13.968Z,16.52
2018-06-02T04:32:16.553Z,16.54
2018-06-02T04:35:19.038Z,16.43
2018-06-02T04:38:21.593Z,16.44
2018-06-02T04:41:24.102Z,16.36
2018-06-02T04:44:26.598Z,16.26
2018-06-02T04:47:29.118Z,16.26
2018-06-02T04:50:31.591Z,16.24
2018-06-02T04:53:34.056Z,16.24
2018-06-02T04:56:36.646Z,16.21
2018-06-02T04:59:39.094Z,16.12
2018-06-02T05:02:41.608Z,16.19
2018-06-02T05:05:44.130Z,16.24
2018-06-02T05:08:46.747Z,16.26
2018-06-02T05:11:49.208Z,16.21
2018-06-02T05:14:51.700Z,16.27
2018-06-02T05:17:54.179Z,16.24
2018-06-02T05:20:56.747Z,16.17
2018-06-02T05:23:59.236Z,16.25
2018-06-02T05:27:01.739Z,16.28
2018-06-02T05:30:04.217Z,16.27
2018-06-02T05:33:06.719Z,16.33
2018-06-02T05:36:09.198Z,16.31
2018-06-02T05:39:11.750Z,16.32
2018-06-02T05:42:14.211Z,16.35
2018-06-02T05:45:16.735Z,16.42
2018-06-02T05:48:19.184Z,16.40
2018-06-02T05:51:21.679Z,16.46
2018-06-02T05:54:24.150Z,16.43
2018-06-02T05:57:26.680Z,16.40
2018-06-02T06:00:29.216Z,16.39
2018-06-02T06:03:31.684Z,16.42
2018-06-02T06:06:34.184Z,16.45
2018-06-02T06:09:37.530Z,16.36
2018-06-02T06:12:40.021Z,16.49
2018-06-02T06:15:42.498Z,16.34
2018-06-02T06:18:44.996Z,16.39
2018-06-02T06:21:47.451Z,16.44
2018-06-02T06:24:49.961Z,16.61
2018-06-02T06:27:52.514Z,16.46
2018-06-02T06:30:54.991Z,16.58
2018-06-02T06:33:57.534Z,16.61
2018-06-02T06:36:59.983Z,16.49
2018-06-02T06:40:02.490Z,16.47
2018-06-02T06:43:04.944Z,16.65
2018-06-02T06:46:07.457Z,16.75
2018-06-02T06:49:10.040Z,16.49
2018-06-02T06:52:12.535Z,16.59
2018-06-02T06:55:14.989Z,16.70
2018-06-02T06:58:17.481Z,16.55
2018-06-02T07:01:20.012Z,16.66
2018-06-02T07:04:22.525Z,16.56
2018-06-02T07:07:24.973Z,16.57
2018-06-02T07:10:27.504Z,16.50
2018-06-02T07:13:29.976Z,16.56
2018-06-02T07:16:32.556Z,16.55
2018-06-02T07:19:35.005Z,16.69
2018-06-02T07:22:37.507Z,16.71
2018-06-02T07:25:39.984Z,16.62
2018-06-02T07:28:43.510Z,16.94
2018-06-02T07:31:47.131Z,16.89
2018-06-02T07:34:49.689Z,16.95
2018-06-02T07:37:52.180Z,17.01
2018-06-02T07:40:55.940Z,17.06
2018-06-02T07:43:58.425Z,17.16
2018-06-02T07:47:00.985Z,17.00
2018-06-02T07:50:03.506Z,17.13
2018-06-02T07:53:06.032Z,17.16
2018-06-02T07:56:08.491Z,17.18
2018-06-02T07:59:11.035Z,17.06
2018-06-02T08:02:14.341Z,17.02
2018-06-02T08:05:16.840Z,17.07
2018-06-02T08:08:19.386Z,17.26
2018-06-02T08:11:21.822Z,17.07
2018-06-02T08:14:24.381Z,17.05
2018-06-02T08:17:26.877Z,17.00
2018-06-02T08:20:29.404Z,16.96
2018-06-02T08:23:31.991Z,16.96
2018-06-02T08:26:34.458Z,17.16
2018-06-02T08:29:36.991Z,17.26
2018-06-02T08:32:39.527Z,17.34
2018-06-02T08:35:42.076Z,17.25
2018-06-02T08:38:44.560Z,17.54
2018-06-02T08:41:47.111Z,17.45
2018-06-02T08:44:49.614Z,17.39
2018-06-02T08:47:52.096Z,17.51
2018-06-02T08:50:54.662Z,17.37
2018-06-02T08:53:57.132Z,17.53
2018-06-02T08:56:59.762Z,17.58
2018-06-02T09:00:02.241Z,17.54
2018-06-02T09:03:04.732Z,17.49
2018-06-02T09:06:07.241Z,17.47
2018-06-02T09:09:09.993Z,17.53
2018-06-02T09:12:12.456Z,17.66
2018-06-02T09:15:14.996Z,17.72
2018-06-02T09:18:17.442Z,17.66
2018-06-02T09:21:20.004Z,17.74
2018-06-02T09:24:22.516Z,17.84
2018-06-02T09:27:24.979Z,17.79
2018-06-02T09:30:27.607Z,17.85
2018-06-02T09:33:30.072Z,17.68
2018-06-02T09:36:33.411Z,17.77
2018-06-02T09:39:35.911Z,17.74
2018-06-02T09:42:38.422Z,17.81
2018-06-02T09:45:41.008Z,17.73
2018-06-02T09:48:43.513Z,17.82
2018-06-02T09:51:45.973Z,18.03
2018-06-02T09:54:48.582Z,17.82
2018-06-02T09:57:51.080Z,17.64
2018-06-02T10:00:53.654Z,17.78
2018-06-02T10:03:56.192Z,17.92
2018-06-02T10:06:58.670Z,17.67
2018-06-02T10:10:01.192Z,17.80
2018-06-02T10:13:03.713Z,17.81
2018-06-02T10:16:06.162Z,17.92
2018-06-02T10:19:08.704Z,17.93
2018-06-02T10:22:11.278Z,17.79
2018-06-02T10:25:13.855Z,17.79
2018-06-02T10:28:16.352Z,17.72
2018-06-02T10:31:18.802Z,17.76
2018-06-02T10:34:21.287Z,17.80
2018-06-02T10:37:23.769Z,17.89
2018-06-02T10:40:26.247Z,17.89
2018-06-02T10:43:28.808Z,17.74
2018-06-02T10:46:31.349Z,17.72
2018-06-02T10:49:33.908Z,17.69
2018-06-02T10:52:36.447Z,17.60
2018-06-02T10:55:38.968Z,17.64
2018-06-02T10:58:41.483Z,17.66
2018-06-02T11:01:44.087Z,17.76
2018-06-02T11:04:46.905Z,17.76
2018-06-02T11:07:49.401Z,17.75
2018-06-02T11:10:51.877Z,17.88
2018-06-02T11:13:54.405Z,17.87
2018-06-02T11:16:56.903Z,17.95
2018-06-02T11:19:59.605Z,18.00
2018-06-02T11:23:02.080Z,18.03
2018-06-02T11:26:04.621Z,18.05
2018-06-02T11:29:07.104Z,17.98
2018-06-02T11:32:09.585Z,17.87
2018-06-02T11:35:12.168Z,18.08
2018-06-02T11:38:14.625Z,17.98
2018-06-02T11:41:17.202Z,18.20
2018-06-02T11:44:19.793Z,18.17
2018-06-02T11:47:22.278Z,18.24
2018-06-02T11:50:24.762Z,18.35
2018-06-02T11:53:27.279Z,18.37
2018-06-02T11:56:29.788Z,18.69
2018-06-02T11:59:32.263Z,18.80
2018-06-02T12:02:34.774Z,19.04
2018-06-02T12:05:37.394Z,19.24
2018-06-02T12:08:39.893Z,19.39
2018-06-02T12:11:42.415Z,19.17
2018-06-02T12:14:44.969Z,19.37
2018-06-02T12:17:47.534Z,19.74
2018-06-02T12:20:49.986Z,19.80
2018-06-02T12:23:52.499Z,19.89
2018-06-02T12:26:55.045Z,20.25
2018-06-02T12:29:57.563Z,19.67
2018-06-02T12:33:00.015Z,19.98
2018-06-02T12:36:02.609Z,20.44
2018-06-02T12:39:05.860Z,20.13
2018-06-02T12:42:08.336Z,19.91
2018-06-02T12:45:10.899Z,19.51
2018-06-02T12:48:13.544Z,19.54
2018-06-02T12:51:16.005Z,19.52
2018-06-02T12:54:18.511Z,19.76
2018-06-02T12:57:21.017Z,20.15
2018-06-02T13:00:23.486Z,20.55
2018-06-02T13:03:25.966Z,20.76
2018-06-02T13:06:28.415Z,20.43
2018-06-02T13:09:30.919Z,20.51
2018-06-02T13:12:33.384Z,20.69
2018-06-02T13:15:35.885Z,20.98
2018-06-02T13:18:38.489Z,21.01
2018-06-02T13:21:41.031Z,20.61
2018-06-02T13:24:43.536Z,20.85
2018-06-02T13:27:45.996Z,20.05
2018-06-02T13:30:48.474Z,20.51
2018-06-02T13:33:50.968Z,20.43
2018-06-02T13:36:53.550Z,20.78
2018-06-02T13:39:56.028Z,20.92
2018-06-02T13:42:58.548Z,21.24
2018-06-02T13:46:01.047Z,21.39
2018-06-02T13:49:03.550Z,21.18
2018-06-02T13:52:06.052Z,21.60
2018-06-02T13:55:08.532Z,21.57
2018-06-02T13:58:11.154Z,21.64
2018-06-02T14:01:13.660Z,21.82
2018-06-02T14:04:16.165Z,21.95
2018-06-02T14:07:18.655Z,21.76
2018-06-02T14:10:21.175Z,21.72
2018-06-02T14:13:23.708Z,21.47
2018-06-02T14:16:26.200Z,21.42
2018-06-02T14:19:28.780Z,21.50
2018-06-02T14:22:31.276Z,21.67
2018-06-02T14:25:33.909Z,21.66
2018-06-02T14:28:36.384Z,21.48
2018-06-02T14:31:38.862Z,21.73
2018-06-02T14:34:41.371Z,21.30
2018-06-02T14:37:43.930Z,21.14
2018-06-02T14:40:46.460Z,21.18
2018-06-02T14:43:48.961Z,21.04
2018-06-02T14:46:51.473Z,20.85
2018-06-02T14:49:54.010Z,20.78
2018-06-02T14:52:56.515Z,20.95
2018-06-02T14:55:58.997Z,20.92
2018-06-02T14:59:01.517Z,21.17
2018-06-02T15:02:04.142Z,20.74
2018-06-02T15:05:06.624Z,20.63
2018-06-02T15:08:09.130Z,20.45
2018-06-02T15:11:11.643Z,20.47
2018-06-02T15:14:14.140Z,20.46
2018-06-02T15:17:16.701Z,20.58
2018-06-02T15:20:19.175Z,20.40
2018-06-02T15:23:21.751Z,20.73
2018-06-02T15:26:24.294Z,20.65
2018-06-02T15:29:26.806Z,20.40
2018-06-02T15:32:29.341Z,20.43
2018-06-02T15:35:31.942Z,20.62
2018-06-02T15:38:34.457Z,20.79
2018-06-02T15:41:37.002Z,20.76
2018-06-02T15:44:39.487Z,21.00
2018-06-02T15:47:42.042Z,21.10
2018-06-02T15:50:44.529Z,21.00
2018-06-02T15:53:47.057Z,20.98
2018-06-02T15:56:51.491Z,20.91
2018-06-02T15:59:53.975Z,20.87
2018-06-02T16:02:56.487Z,21.01
2018-06-02T16:05:58.986Z,20.91
2018-06-02T16:09:01.491Z,20.75
2018-06-02T16:12:03.987Z,20.63
2018-06-02T16:15:06.501Z,21.05
2018-06-02T16:18:09.003Z,20.95
2018-06-02T16:21:11.511Z,20.63
2018-06-02T16:24:14.018Z,20.93
2018-06-02T16:27:16.528Z,20.65
2018-06-02T16:30:19.074Z,20.45
2018-06-02T16:33:21.568Z,20.61
2018-06-02T16:36:24.067Z,20.45
2018-06-02T16:39:26.533Z,20.56
2018-06-02T16:42:29.027Z,20.40
2018-06-02T16:45:31.514Z,20.53
2018-06-02T16:48:34.041Z,20.48
2018-06-02T16:51:36.541Z,20.40
2018-06-02T16:54:39.075Z,20.65
2018-06-02T16:57:41.583Z,20.73
2018-06-02T17:00:44.085Z,20.57
2018-06-02T17:03:46.597Z,20.58
2018-06-02T17:06:49.121Z,20.66
2018-06-02T17:09:51.664Z,20.61
2018-06-02T17:12:54.193Z,20.59
2018-06-02T17:15:56.756Z,20.63
2018-06-02T17:18:59.333Z,20.55
2018-06-02T17:22:01.878Z,20.42
2018-06-02T17:25:04.434Z,20.42
2018-06-02T17:28:06.953Z,20.47
2018-06-02T17:31:09.457Z,20.41
2018-06-02T17:34:11.948Z,20.43
2018-06-02T17:37:14.496Z,20.46
2018-06-02T17:40:17.042Z,20.37
2018-06-02T17:43:19.547Z,20.27
2018-06-02T17:46:22.052Z,20.02
2018-06-02T17:49:24.497Z,20.05
2018-06-02T17:52:27.014Z,19.99
2018-06-02T17:55:29.557Z,19.99
2018-06-02T17:58:32.070Z,19.82
2018-06-02T18:01:34.597Z,19.80
2018-06-02T18:04:37.074Z,19.83
2018-06-02T18:07:39.557Z,19.74
2018-06-02T18:10:42.018Z,19.68
2018-06-02T18:13:44.526Z,19.66
2018-06-02T18:16:46.996Z,19.67
2018-06-02T18:19:49.557Z,19.62
2018-06-02T18:22:52.062Z,19.63
2018-06-02T18:25:54.571Z,19.68
2018-06-02T18:28:57.076Z,19.70
2018-06-02T18:31:59.588Z,19.61
2018-06-02T18:35:02.090Z,19.54
2018-06-02T18:38:04.584Z,19.48
2018-06-02T18:41:07.046Z,19.51
2018-06-02T18:44:09.578Z,19.53
2018-06-02T18:47:12.139Z,19.42
2018-06-02T18:50:14.787Z,19.45
2018-06-02T18:53:17.281Z,19.42
2018-06-02T18:56:19.807Z,19.37
2018-06-02T18:59:22.372Z,19.36
2018-06-02T19:02:24.916Z,19.33
2018-06-02T19:05:27.477Z,19.30
2018-06-02T19:08:30.002Z,19.22
2018-06-02T19:11:32.468Z,19.15
2018-06-02T19:14:35.008Z,19.06
2018-06-02T19:17:37.546Z,19.01
2018-06-02T19:20:40.071Z,18.97
2018-06-02T19:23:42.583Z,18.88
2018-06-02T19:26:45.047Z,18.79
2018-06-02T19:29:47.643Z,18.71
2018-06-02T19:32:50.133Z,18.68
2018-06-02T19:35:52.658Z,18.56
2018-06-02T19:38:55.190Z,18.49
2018-06-02T19:41:57.735Z,18.36
2018-06-02T19:45:00.290Z,18.34
2018-06-02T19:48:02.859Z,18.26
2018-06-02T19:51:05.352Z,18.17
2018-06-02T19:54:07.875Z,18.13
2018-06-02T19:57:10.543Z,18.02
2018-06-02T20:00:12.998Z,17.91
2018-06-02T20:03:15.556Z,17.81
2018-06-02T20:06:18.030Z,17.73
2018-06-02T20:09:20.489Z,17.65
2018-06-02T20:12:22.999Z,17.62
2018-06-02T20:15:25.457Z,17.56
2018-06-02T20:18:27.964Z,17.45
2018-06-02T20:21:30.423Z,17.38
2018-06-02T20:24:32.963Z,17.34
2018-06-02T20:27:35.560Z,17.28
2018-06-02T20:30:38.139Z,17.23
2018-06-02T20:33:40.781Z,17.16
2018-06-02T20:36:43.256Z,17.11
2018-06-02T20:39:45.803Z,17.05
2018-06-02T20:42:48.296Z,17.04
2018-06-02T20:45:50.844Z,17.04
2018-06-02T20:48:53.314Z,17.04
2018-06-02T20:51:55.921Z,17.02
2018-06-02T20:54:58.424Z,17.04
2018-06-02T20:58:00.946Z,16.98
2018-06-02T21:01:03.515Z,16.93
2018-06-02T21:04:06.105Z,16.88
2018-06-02T21:07:08.610Z,16.85
2018-06-02T21:10:11.120Z,16.80
2018-06-02T21:13:13.621Z,16.78
2018-06-02T21:16:16.101Z,16.73
2018-06-02T21:19:18.596Z,16.72
2018-06-02T21:22:21.122Z,16.70
2018-06-02T21:25:23.681Z,16.72
2018-06-02T21:28:26.155Z,16.69
2018-06-02T21:31:28.708Z,16.64
2018-06-02T21:34:31.218Z,16.69
2018-06-02T21:37:33.701Z,16.60
2018-06-02T21:40:36.239Z,16.63
2018-06-02T21:43:38.809Z,16.62
2018-06-02T21:46:41.353Z,16.60
2018-06-02T21:49:43.840Z,16.54
2018-06-02T21:52:46.416Z,16.52
2018-06-02T21:55:48.956Z,16.47
2018-06-02T21:58:51.515Z,16.47
2018-06-02T22:01:54.133Z,16.44
2018-06-02T22:04:56.735Z,16.44
2018-06-02T22:07:59.195Z,16.45
2018-06-02T22:11:01.818Z,16.45
2018-06-02T22:14:04.285Z,16.49
2018-06-02T22:17:06.808Z,16.55
2018-06-02T22:20:09.352Z,16.54
2018-06-02T22:23:11.815Z,16.57
2018-06-02T22:26:14.305Z,16.57
2018-06-02T22:29:16.866Z,16.51
2018-06-02T22:32:19.355Z,16.47
2018-06-02T22:35:21.861Z,16.46
2018-06-02T22:38:24.347Z,16.47
2018-06-02T22:41:26.800Z,16.51
2018-06-02T22:44:29.285Z,16.56
2018-06-02T22:47:31.773Z,16.54
2018-06-02T22:50:34.371Z,16.56
2018-06-02T22:53:36.976Z,16.59
2018-06-02T22:56:39.425Z,16.63
2018-06-02T22:59:41.924Z,16.70
2018-06-02T23:02:44.439Z,16.73
2018-06-02T23:05:46.900Z,16.78
2018-06-02T23:08:49.386Z,16.82
2018-06-02T23:11:51.880Z,16.84
2018-06-02T23:14:54.449Z,16.85
2018-06-02T23:17:56.937Z,16.85
2018-06-02T23:20:59.470Z,16.84
2018-06-02T23:24:02.000Z,16.92
2018-06-02T23:27:04.501Z,16.90
2018-06-02T23:30:06.984Z,16.89
2018-06-02T23:33:09.484Z,16.92
2018-06-02T23:36:12.326Z,17.00
2018-06-02T23:39:14.839Z,17.00
2018-06-02T23:42:17.324Z,16.99
2018-06-02T23:45:19.833Z,17.02
2018-06-02T23:48:22.405Z,17.01
2018-06-02T23:51:25.006Z,16.92
2018-06-02T23:54:27.554Z,16.87
2018-06-02T23:57:30.035Z,16.82
